Time;durP1;ratioP1;P1;durP2;ratioP2;P2;SDS_P1;SDS_P2;PMS_P1;PMS_P2;Temp;Humidity;BMP_temperature;BMP_pressure;BME280_temperature;BME280_humidity;BME280_pressure;Samples;Min_cycle;Max_cycle;Signal;HPM_P1;HPM_P2
2023/03/14 00:01:28;;;;;;;;;;;;;;;;;;5047584;28;4511;-66
2023/03/14 00:03:53;;;;;;;;;;;;;;;;;;5045043;28;4508;-66
2023/03/14 00:06:19;;;;;;;;;;;;;;;;;;5039153;28;3616;-66
2023/03/14 00:08:44;;;;;;;;;;;;;;;;;;5043692;28;4554;-67
2023/03/14 00:11:10;;;;;;;;;;;;;;;;;;5041057;28;4696;-67
2023/03/14 00:13:36;;;;;;;;;;;;;;;;;;5037854;28;5151;-65
2023/03/14 00:16:11;;;;;;;;;;;;;;;;;;5038698;28;4522;-67
2023/03/14 00:18:36;;;;;;;;;;;;;;;;;;5038431;28;4680;-67
2023/03/14 00:21:02;;;;;;;;;;;;;;;;;;5040805;28;4529;-67
2023/03/14 00:23:28;;;;;;;;;;;;;;;;;;5035832;28;5090;-66
2023/03/14 00:25:56;;;;;;;;;;;;;;;;;;5040700;28;5240;-66
2023/03/14 00:28:22;;;;;;;;;;;;;;;;;;5040928;28;4685;-67
2023/03/14 00:30:47;;;;;;;;;;;;;;;;;;5038621;28;5311;-65
2023/03/14 00:33:12;;;;;;;;;;;;;;;;;;5044392;28;3493;-64
2023/03/14 00:35:37;;;;;;;;;;;;;;;;;;5043034;28;4462;-66
2023/03/14 00:38:03;;;;;;;;;;;;;;;;;;5041598;28;5036;-63
2023/03/14 00:40:28;;;;;;;;;;;;;;;;;;5041195;28;4479;-67
2023/03/14 00:42:53;;;;;;;;;;;;;;;;;;5070316;28;4587;-67
2023/03/14 00:45:19;;;;;;;;;;;;;;;;;;5041572;28;3554;-66
2023/03/14 00:47:45;;;;;;;;;;;;;;;;;;5041547;28;4724;-66
2023/03/14 00:50:11;;;;;;;;;;;;;;;;;;5043034;28;4744;-67
2023/03/14 00:52:36;;;;;;;;;;;;;;;;;;5044226;28;4534;-67
2023/03/14 00:55:01;;;;;;;;;;;;;;;;;;5042947;28;4683;-68
2023/03/14 00:57:26;;;;;;;;;;;;;;;;;;5037115;28;3552;-67
2023/03/14 00:59:52;;;;;;;;;;;;;;;;;;5036808;28;4680;-67
2023/03/14 01:02:17;;;;;;;;;;;;;;;;;;5042040;28;4648;-68
2023/03/14 01:04:43;;;;;;;;;;;;;;;;;;5040721;28;4488;-65
2023/03/14 01:07:08;;;;;;;;;;;;;;;;;;5033770;28;4537;-66
2023/03/14 01:09:33;;;;;;;;;;;;;;;;;;5041312;28;1436;-67
2023/03/14 01:11:59;;;;;;;;;;;;;;;;;;5037101;28;5304;-69
2023/03/14 01:14:24;;;;;;;;;;;;;;;;;;5041667;28;5130;-67
2023/03/14 01:16:49;;;;;;;;;;;;;;;;;;5040674;28;5092;-67
2023/03/14 01:19:14;;;;;;;;;;;;;;;;;;5046891;28;5049;-67
2023/03/14 01:21:40;;;;;;;;;;;;;;;;;;5043888;28;3658;-70
2023/03/14 01:24:06;;;;;;;;;;;;;;;;;;5043111;28;4410;-66
2023/03/14 01:26:32;;;;;;;;;;;;;;;;;;5035124;28;4644;-69
2023/03/14 01:28:57;;;;;;;;;;;;;;;;;;5046014;28;4537;-69
2023/03/14 01:31:22;;;;;;;;;;;;;;;;;;5043955;28;4490;-69
2023/03/14 01:33:48;;;;;;;;;;;;;;;;;;5047744;28;4460;-67
2023/03/14 01:36:13;;;;;;;;;;;;;;;;;;5042515;28;3389;-68
2023/03/14 01:38:39;;;;;;;;;;;;;;;;;;5046250;28;4619;-68
2023/03/14 01:41:04;;;;;;;;;;;;;;;;;;5045646;28;4573;-69
2023/03/14 01:43:30;;;;;;;;;;;;;;;;;;5041259;28;4514;-68
2023/03/14 01:45:58;;;;;;;;;;;;;;;;;;5041007;28;5068;-66
2023/03/14 01:48:24;;;;;;;;;;;;;;;;;;5043227;28;3331;-67
2023/03/14 01:50:49;;;;;;;;;;;;;;;;;;5041103;28;4440;-67
2023/03/14 01:53:15;;;;;;;;;;;;;;;;;;5032747;28;4487;-68
2023/03/14 01:55:40;;;;;;;;;;;;;;;;;;5035439;28;4935;-68
2023/03/14 01:58:05;;;;;;;;;;;;;;;;;;5038114;28;4851;-67
2023/03/14 02:00:30;;;;;;;;;;;;;;;;;;5043390;28;3591;-68
2023/03/14 02:03:01;;;;;;;;;;;;;;;;;;5038124;28;4658;-68
2023/03/14 02:05:26;;;;;;;;;;;;;;;;;;5045185;28;4659;-67
2023/03/14 02:07:52;;;;;;;;;;;;;;;;;;5041822;28;4913;-67
2023/03/14 02:10:18;;;;;;;;;;;;;;;;;;5036383;28;4686;-64
2023/03/14 02:12:44;;;;;;;;;;;;;;;;;;5044924;28;5214;-66
2023/03/14 02:15:10;;;;;;;;;;;;;;;;;;5044067;28;3304;-68
2023/03/14 02:17:35;;;;;;;;;;;;;;;;;;5044563;28;4602;-67
2023/03/14 02:20:07;;;;;;;;;;;;;;;;;;5042610;28;4939;-68
2023/03/14 02:22:33;;;;;;;;;;;;;;;;;;5041412;28;4466;-64
2023/03/14 02:25:14;;;;;;;;;;;;;;;;;;5044788;28;4456;-67
2023/03/14 02:27:39;;;;;;;;;;;;;;;;;;5048039;28;1244;-67
2023/03/14 02:30:05;;;;;;;;;;;;;;;;;;5035708;28;4963;-68
2023/03/14 02:32:31;;;;;;;;;;;;;;;;;;5041362;28;4467;-68
2023/03/14 02:34:57;;;;;;;;;;;;;;;;;;5074785;28;5215;-67
2023/03/14 02:37:23;;;;;;;;;;;;;;;;;;5034233;28;4493;-68
2023/03/14 02:39:51;;;;;;;;;;;;;;;;;;5072704;28;4709;-67
2023/03/14 02:42:16;;;;;;;;;;;;;;;;;;5045895;28;2955;-69
2023/03/14 02:44:55;;;;;;;;;;;;;;;;;;5045207;28;4551;-68
2023/03/14 02:47:21;;;;;;;;;;;;;;;;;;5048634;28;4618;-68
2023/03/14 02:49:46;;;;;;;;;;;;;;;;;;5046913;28;4479;-67
2023/03/14 02:52:11;;;;;;;;;;;;;;;;;;5046907;28;5208;-68
2023/03/14 02:54:37;;;;;;;;;;;;;;;;;;5051946;28;2317;-68
2023/03/14 02:57:02;;;;;;;;;;;;;;;;;;5041033;28;4907;-67
2023/03/14 02:59:28;;;;;;;;;;;;;;;;;;5037146;28;5179;-68
2023/03/14 03:01:53;;;;;;;;;;;;;;;;;;5042786;28;5108;-67
2023/03/14 03:04:18;;;;;;;;;;;;;;;;;;5041155;28;4683;-67
2023/03/14 03:06:43;;;;;;;;;;;;;;;;;;5040167;28;5031;-68
2023/03/14 03:09:09;;;;;;;;;;;;;;;;;;5047082;28;3270;-67
2023/03/14 03:11:34;;;;;;;;;;;;;;;;;;5040887;28;4453;-67
2023/03/14 03:13:59;;;;;;;;;;;;;;;;;;5035361;28;4465;-67
2023/03/14 03:16:24;;;;;;;;;;;;;;;;;;5043068;28;4508;-68
2023/03/14 03:18:50;;;;;;;;;;;;;;;;;;5037094;28;4911;-68
2023/03/14 03:21:15;;;;;;;;;;;;;;;;;;5047449;28;3301;-66
2023/03/14 03:23:41;;;;;;;;;;;;;;;;;;5040429;28;4494;-68
2023/03/14 03:26:06;;;;;;;;;;;;;;;;;;5045901;28;4615;-67
2023/03/14 03:28:31;;;;;;;;;;;;;;;;;;5045885;28;5389;-68
2023/03/14 03:30:56;;;;;;;;;;;;;;;;;;5041985;28;5016;-67
2023/03/14 03:33:23;;;;;;;;;;;;;;;;;;5045937;28;3258;-67
2023/03/14 03:35:49;;;;;;;;;;;;;;;;;;5046098;28;4403;-66
2023/03/14 03:38:14;;;;;;;;;;;;;;;;;;5043598;28;5313;-68
2023/03/14 03:40:39;;;;;;;;;;;;;;;;;;5041229;28;4721;-68
2023/03/14 03:43:05;;;;;;;;;;;;;;;;;;5039340;28;4514;-68
2023/03/14 03:45:30;;;;;;;;;;;;;;;;;;5043256;28;3361;-68
2023/03/14 03:47:55;;;;;;;;;;;;;;;;;;5042687;28;4863;-68
2023/03/14 03:50:20;;;;;;;;;;;;;;;;;;5045872;28;5009;-68
2023/03/14 03:52:46;;;;;;;;;;;;;;;;;;5044221;28;5219;-65
2023/03/14 03:55:11;;;;;;;;;;;;;;;;;;5040848;28;4709;-67
2023/03/14 03:57:36;;;;;;;;;;;;;;;;;;5043516;28;3251;-68
2023/03/14 04:00:03;;;;;;;;;;;;;;;;;;5038473;28;5092;-68
2023/03/14 04:02:29;;;;;;;;;;;;;;;;;;5042259;28;4605;-67
2023/03/14 04:04:54;;;;;;;;;;;;;;;;;;5044773;28;5315;-66
2023/03/14 04:07:19;;;;;;;;;;;;;;;;;;5039523;28;4518;-68
2023/03/14 04:09:45;;;;;;;;;;;;;;;;;;5043993;28;4479;-65
2023/03/14 04:12:10;;;;;;;;;;;;;;;;;;5039466;28;3373;-68
2023/03/14 04:14:36;;;;;;;;;;;;;;;;;;5035816;28;4622;-68
2023/03/14 04:17:01;;;;;;;;;;;;;;;;;;5041041;28;4694;-68
2023/03/14 04:19:26;;;;;;;;;;;;;;;;;;5046140;28;4640;-68
2023/03/14 04:21:51;;;;;;;;;;;;;;;;;;5042524;28;4498;-66
2023/03/14 04:24:17;;;;;;;;;;;;;;;;;;5038055;28;3564;-67
2023/03/14 04:26:42;;;;;;;;;;;;;;;;;;5042102;28;4495;-68
2023/03/14 04:29:07;;;;;;;;;;;;;;;;;;5037724;28;4732;-67
2023/03/14 04:31:33;;;;;;;;;;;;;;;;;;5041374;28;4746;-67
2023/03/14 04:33:58;;;;;;;;;;;;;;;;;;5042851;28;4765;-65
2023/03/14 04:36:23;;;;;;;;;;;;;;;;;;5042779;28;3325;-67
2023/03/14 04:38:48;;;;;;;;;;;;;;;;;;5045711;28;4953;-67
2023/03/14 04:41:14;;;;;;;;;;;;;;;;;;5042023;28;4416;-65
2023/03/14 04:43:39;;;;;;;;;;;;;;;;;;5037089;28;5320;-66
2023/03/14 04:46:04;;;;;;;;;;;;;;;;;;5043240;28;4659;-68
2023/03/14 04:48:30;;;;;;;;;;;;;;;;;;5045903;28;3508;-67
2023/03/14 04:50:55;;;;;;;;;;;;;;;;;;5039350;28;4457;-68
2023/03/14 04:53:20;;;;;;;;;;;;;;;;;;5033633;28;4623;-67
2023/03/14 04:55:49;;;;;;;;;;;;;;;;;;5037741;28;5149;-67
2023/03/14 04:58:14;;;;;;;;;;;;;;;;;;5046969;28;5158;-66
2023/03/14 05:00:39;;;;;;;;;;;;;;;;;;5043532;28;3739;-68
2023/03/14 05:03:05;;;;;;;;;;;;;;;;;;5037890;28;4940;-69
2023/03/14 05:05:30;;;;;;;;;;;;;;;;;;5036150;28;5004;-65
2023/03/14 05:07:55;;;;;;;;;;;;;;;;;;5042101;28;4768;-66
2023/03/14 05:10:21;;;;;;;;;;;;;;;;;;5036659;28;4813;-67
2023/03/14 05:12:46;;;;;;;;;;;;;;;;;;5036638;28;4476;-67
2023/03/14 05:15:11;;;;;;;;;;;;;;;;;;5042531;28;1917;-67
2023/03/14 05:17:36;;;;;;;;;;;;;;;;;;5045382;28;6036;-68
2023/03/14 05:20:07;;;;;;;;;;;;;;;;;;5042196;28;4967;-68
2023/03/14 05:22:33;;;;;;;;;;;;;;;;;;5040179;28;4680;-67
2023/03/14 05:24:59;;;;;;;;;;;;;;;;;;5037876;28;4571;-67
2023/03/14 05:27:24;;;;;;;;;;;;;;;;;;5044429;28;3551;-67
2023/03/14 05:29:49;;;;;;;;;;;;;;;;;;5043462;28;4738;-67
2023/03/14 05:32:14;;;;;;;;;;;;;;;;;;5044036;28;4986;-66
2023/03/14 05:34:40;;;;;;;;;;;;;;;;;;5041113;28;5566;-67
2023/03/14 05:37:05;;;;;;;;;;;;;;;;;;5041926;28;4567;-67
2023/03/14 05:39:30;;;;;;;;;;;;;;;;;;5042880;28;1202;-67
2023/03/14 05:41:55;;;;;;;;;;;;;;;;;;5045057;28;4460;-67
2023/03/14 05:44:21;;;;;;;;;;;;;;;;;;5044616;28;5123;-67
2023/03/14 05:46:46;;;;;;;;;;;;;;;;;;5037459;28;4657;-67
2023/03/14 05:49:11;;;;;;;;;;;;;;;;;;5033339;28;4711;-67
2023/03/14 05:51:36;;;;;;;;;;;;;;;;;;5037746;28;3627;-67
2023/03/14 05:54:02;;;;;;;;;;;;;;;;;;5039064;28;4616;-67
2023/03/14 05:56:27;;;;;;;;;;;;;;;;;;5036992;28;4461;-68
2023/03/14 05:58:52;;;;;;;;;;;;;;;;;;5047794;28;5136;-67
2023/03/14 06:01:18;;;;;;;;;;;;;;;;;;5040403;28;4541;-65
2023/03/14 06:03:43;;;;;;;;;;;;;;;;;;5045401;28;4705;-62
2023/03/14 06:06:08;;;;;;;;;;;;;;;;;;5035090;28;3387;-66
2023/03/14 06:08:34;;;;;;;;;;;;;;;;;;5041660;28;4947;-65
2023/03/14 06:10:59;;;;;;;;;;;;;;;;;;5037010;28;4661;-65
2023/03/14 06:13:25;;;;;;;;;;;;;;;;;;5039449;28;4998;-65
2023/03/14 06:15:50;;;;;;;;;;;;;;;;;;5037110;28;4557;-64
2023/03/14 06:18:15;;;;;;;;;;;;;;;;;;5035332;28;4356;-65
2023/03/14 06:20:40;;;;;;;;;;;;;;;;;;5031946;28;4511;-65
2023/03/14 06:23:06;;;;;;;;;;;;;;;;;;5036112;28;5173;-65
2023/03/14 06:25:31;;;;;;;;;;;;;;;;;;5044318;28;4665;-65
2023/03/14 06:27:57;;;;;;;;;;;;;;;;;;5041084;28;4456;-65
2023/03/14 06:30:22;;;;;;;;;;;;;;;;;;5037209;28;1072;-65
2023/03/14 06:32:47;;;;;;;;;;;;;;;;;;5039843;28;4931;-65
2023/03/14 06:35:13;;;;;;;;;;;;;;;;;;5039814;28;4550;-65
2023/03/14 06:37:38;;;;;;;;;;;;;;;;;;5039511;28;4694;-65
2023/03/14 06:40:05;;;;;;;;;;;;;;;;;;5040156;28;4518;-65
2023/03/14 06:42:30;;;;;;;;;;;;;;;;;;5042677;28;3749;-65
2023/03/14 06:44:55;;;;;;;;;;;;;;;;;;5039114;28;4530;-65
2023/03/14 06:47:20;;;;;;;;;;;;;;;;;;5037002;28;5673;-65
2023/03/14 06:49:46;;;;;;;;;;;;;;;;;;5042557;28;4673;-65
2023/03/14 06:52:11;;;;;;;;;;;;;;;;;;5043699;28;4486;-65
2023/03/14 06:54:36;;;;;;;;;;;;;;;;;;5046378;28;1547;-65
2023/03/14 06:57:01;;;;;;;;;;;;;;;;;;5043298;28;5073;-64
2023/03/14 06:59:27;;;;;;;;;;;;;;;;;;5041520;28;5038;-65
2023/03/14 07:01:52;;;;;;;;;;;;;;;;;;5043021;28;4626;-65
2023/03/14 07:04:17;;;;;;;;;;;;;;;;;;5043919;28;5021;-65
2023/03/14 07:06:46;;;;;;;;;;;;;;;;;;5044664;28;3302;-65
2023/03/14 07:09:11;;;;;;;;;;;;;;;;;;5044850;28;5175;-65
2023/03/14 07:11:37;;;;;;;;;;;;;;;;;;5040298;28;4515;-65
2023/03/14 07:14:02;;;;;;;;;;;;;;;;;;5043728;28;4441;-65
2023/03/14 07:16:31;;;;;;;;;;;;;;;;;;5040955;28;5046;-64
2023/03/14 07:18:56;;;;;;;;;;;;;;;;;;5037454;28;4967;-65
2023/03/14 07:21:21;;;;;;;;;;;;;;;;;;5043232;28;3171;-65
2023/03/14 07:23:46;;;;;;;;;;;;;;;;;;5038030;28;5134;-64
2023/03/14 07:26:12;;;;;;;;;;;;;;;;;;5044369;28;5220;-65
2023/03/14 07:28:37;;;;;;;;;;;;;;;;;;5040503;28;4486;-65
2023/03/14 07:31:02;;;;;;;;;;;;;;;;;;5039223;28;4780;-64
2023/03/14 07:33:28;;;;;;;;;;;;;;;;;;5044889;28;3215;-64
2023/03/14 07:35:53;;;;;;;;;;;;;;;;;;5046312;28;4605;-65
2023/03/14 07:38:18;;;;;;;;;;;;;;;;;;5045031;28;5452;-65
2023/03/14 07:40:43;;;;;;;;;;;;;;;;;;5042346;28;4499;-65
2023/03/14 07:43:09;;;;;;;;;;;;;;;;;;5040731;28;5348;-64
2023/03/14 07:45:34;;;;;;;;;;;;;;;;;;5040819;28;3367;-65
2023/03/14 07:47:59;;;;;;;;;;;;;;;;;;5041122;28;4619;-64
2023/03/14 07:50:26;;;;;;;;;;;;;;;;;;5044784;28;4586;-65
2023/03/14 07:52:51;;;;;;;;;;;;;;;;;;5049303;28;5036;-65
2023/03/14 07:55:16;;;;;;;;;;;;;;;;;;5025522;28;5055;-65
2023/03/14 07:57:42;;;;;;;;;;;;;;;;;;5041667;28;1187;-65
2023/03/14 08:00:08;;;;;;;;;;;;;;;;;;5042344;28;4755;-65
2023/03/14 08:02:33;;;;;;;;;;;;;;;;;;5046335;28;4951;-65
2023/03/14 08:04:58;;;;;;;;;;;;;;;;;;5049868;28;4490;-65
2023/03/14 08:07:23;;;;;;;;;;;;;;;;;;5049611;28;4716;-65
2023/03/14 08:09:49;;;;;;;;;;;;;;;;;;5049349;28;5029;-65
2023/03/14 08:12:15;;;;;;;;;;;;;;;;;;5044212;28;3259;-65
2023/03/14 08:14:41;;;;;;;;;;;;;;;;;;5039335;28;5529;-65
2023/03/14 08:17:07;;;;;;;;;;;;;;;;;;5048956;28;4975;-65
2023/03/14 08:19:33;;;;;;;;;;;;;;;;;;5049169;28;5068;-65
2023/03/14 08:21:58;;;;;;;;;;;;;;;;;;5049144;28;4523;-64
2023/03/14 08:24:23;;;;;;;;;;;;;;;;;;5047066;28;1123;-65
2023/03/14 08:26:48;;;;;;;;;;;;;;;;;;5041218;28;4458;-65
2023/03/14 08:29:14;;;;;;;;;;;;;;;;;;5037894;28;5114;-65
2023/03/14 08:31:39;;;;;;;;;;;;;;;;;;5043510;28;4467;-65
2023/03/14 08:34:06;;;;;;;;;;;;;;;;;;5043989;28;4634;-65
2023/03/14 08:36:31;;;;;;;;;;;;;;;;;;5043423;28;3567;-65
2023/03/14 08:38:57;;;;;;;;;;;;;;;;;;5041646;28;4999;-65
2023/03/14 08:41:22;;;;;;;;;;;;;;;;;;5044851;28;4458;-65
2023/03/14 08:43:47;;;;;;;;;;;;;;;;;;5045352;28;4803;-65
2023/03/14 08:46:12;;;;;;;;;;;;;;;;;;5046560;28;5322;-65
2023/03/14 08:48:38;;;;;;;;;;;;;;;;;;5049856;28;1081;-65
2023/03/14 08:51:10;;;;;;;;;;;;;;;;;;5046801;28;4914;-65
2023/03/14 08:53:36;;;;;;;;;;;;;;;;;;5041516;28;4947;-65
2023/03/14 08:56:01;;;;;;;;;;;;;;;;;;5040483;28;4675;-65
2023/03/14 08:58:26;;;;;;;;;;;;;;;;;;5048041;28;5544;-65
2023/03/14 09:00:52;;;;;;;;;;;;;;;;;;5046180;28;4791;-65
2023/03/14 09:03:17;;;;;;;;;;;;;;;;;;5047599;28;1402;-65
2023/03/14 09:05:42;;;;;;;;;;;;;;;;;;5039190;28;5012;-65
2023/03/14 09:08:08;;;;;;;;;;;;;;;;;;5040675;28;5202;-65
2023/03/14 09:10:33;;;;;;;;;;;;;;;;;;5038768;28;5440;-64
2023/03/14 09:12:59;;;;;;;;;;;;;;;;;;5041561;28;4571;-65
2023/03/14 09:15:25;;;;;;;;;;;;;;;;;;5036516;28;1964;-65
2023/03/14 09:17:50;;;;;;;;;;;;;;;;;;5048389;28;4824;-65
2023/03/14 09:20:16;;;;;;;;;;;;;;;;;;5040547;28;5398;-66
2023/03/14 09:22:41;;;;;;;;;;;;;;;;;;5045050;28;4587;-64
2023/03/14 09:25:06;;;;;;;;;;;;;;;;;;5045187;28;4533;-65
2023/03/14 09:27:32;;;;;;;;;;;;;;;;;;5043306;28;1221;-65
2023/03/14 09:29:57;;;;;;;;;;;;;;;;;;5042958;28;4459;-65
2023/03/14 09:32:22;;;;;;;;;;;;;;;;;;5037356;28;5236;-65
2023/03/14 09:34:47;;;;;;;;;;;;;;;;;;5037834;28;4509;-66
2023/03/14 09:37:13;;;;;;;;;;;;;;;;;;5041420;28;5350;-65
2023/03/14 09:39:38;;;;;;;;;;;;;;;;;;5048062;28;1261;-65
2023/03/14 09:42:04;;;;;;;;;;;;;;;;;;5044478;28;4977;-65
2023/03/14 09:44:30;;;;;;;;;;;;;;;;;;5043681;28;4641;-65
2023/03/14 09:46:57;;;;;;;;;;;;;;;;;;5043783;28;5050;-65
2023/03/14 09:49:30;;;;;;;;;;;;;;;;;;5037576;28;4511;-65
2023/03/14 09:51:56;;;;;;;;;;;;;;;;;;5071101;28;4666;-65
2023/03/14 09:54:28;;;;;;;;;;;;;;;;;;5044366;28;3693;-65
2023/03/14 09:56:53;;;;;;;;;;;;;;;;;;5046417;28;4788;-65
2023/03/14 09:59:18;;;;;;;;;;;;;;;;;;5039980;28;4452;-65
2023/03/14 10:01:43;;;;;;;;;;;;;;;;;;5043960;28;4644;-65
2023/03/14 10:04:20;;;;;;;;;;;;;;;;;;5036893;28;5325;-65
2023/03/14 10:06:46;;;;;;;;;;;;;;;;;;5031478;28;4529;-64
2023/03/14 10:09:14;;;;;;;;;;;;;;;;;;5045053;28;3234;-65
2023/03/14 10:11:39;;;;;;;;;;;;;;;;;;5041304;28;5048;-65
2023/03/14 10:14:08;;;;;;;;;;;;;;;;;;5045652;28;5045;-64
2023/03/14 10:16:37;;;;;;;;;;;;;;;;;;5036149;28;4548;-64
2023/03/14 10:19:06;;;;;;;;;;;;;;;;;;5041360;28;4815;-64
2023/03/14 10:21:36;;;;;;;;;;;;;;;;;;5042607;28;1120;-64
2023/03/14 10:24:10;;;;;;;;;;;;;;;;;;5044220;28;5357;-64
2023/03/14 10:26:35;;;;;;;;;;;;;;;;;;5035860;28;4479;-64
2023/03/14 10:29:02;;;;;;;;;;;;;;;;;;5045932;28;4675;-65
2023/03/14 10:31:27;;;;;;;;;;;;;;;;;;5034826;28;4496;-66
2023/03/14 10:33:59;;;;;;;;;;;;;;;;;;5040279;28;4976;-66
2023/03/14 10:36:26;;;;;;;;;;;;;;;;;;5038433;28;1906;-66
2023/03/14 10:38:56;;;;;;;;;;;;;;;;;;5046613;28;5251;-66
2023/03/14 10:41:25;;;;;;;;;;;;;;;;;;5043937;28;4697;-66
2023/03/14 10:43:51;;;;;;;;;;;;;;;;;;5058754;28;4681;-65
2023/03/14 10:46:17;;;;;;;;;;;;;;;;;;5038160;28;4475;-66
2023/03/14 10:48:42;;;;;;;;;;;;;;;;;;5041177;28;1222;-65
2023/03/14 10:51:07;;;;;;;;;;;;;;;;;;5045861;28;4386;-66
2023/03/14 10:53:34;;;;;;;;;;;;;;;;;;5040502;28;5021;-66
2023/03/14 10:55:59;;;;;;;;;;;;;;;;;;5044394;28;4610;-66
2023/03/14 10:58:24;;;;;;;;;;;;;;;;;;5039920;28;4501;-66
2023/03/14 11:00:52;;;;;;;;;;;;;;;;;;5045846;28;4896;-65
2023/03/14 11:03:19;;;;;;;;;;;;;;;;;;5045106;28;1178;-65
2023/03/14 11:05:56;;;;;;;;;;;;;;;;;;5049420;28;4620;-65
2023/03/14 11:08:36;;;;;;;;;;;;;;;;;;5049527;28;4663;-65
2023/03/14 11:11:22;;;;;;;;;;;;;;;;;;5039260;28;4531;-65
2023/03/14 11:14:06;;;;;;;;;;;;;;;;;;5036031;28;4965;-65
2023/03/14 11:16:31;;;;;;;;;;;;;;;;;;5040840;28;5193;-65
2023/03/14 11:19:06;;;;;;;;;;;;;;;;;;5050493;28;5020;-65
2023/03/14 11:21:44;;;;;;;;;;;;;;;;;;5045881;28;3229;-65
2023/03/14 11:24:24;;;;;;;;;;;;;;;;;;5048815;28;4803;-64
2023/03/14 11:26:52;;;;;;;;;;;;;;;;;;5038112;28;4456;-65
2023/03/14 11:29:22;;;;;;;;;;;;;;;;;;5042905;28;4431;-64
2023/03/14 11:31:47;;;;;;;;;;;;;;;;;;5050553;28;5063;-65
2023/03/14 11:34:28;;;;;;;;;;;;;;;;;;5041447;28;4550;-65
2023/03/14 11:36:57;;;;;;;;;;;;;;;;;;5047490;28;4722;-64
2023/03/14 11:39:22;;;;;;;;;;;;;;;;;;5048845;28;1382;-64
2023/03/14 11:41:49;;;;;;;;;;;;;;;;;;5039734;28;4617;-65
2023/03/14 11:44:40;;;;;;;;;;;;;;;;;;5045291;28;5138;-65
2023/03/14 11:47:09;;;;;;;;;;;;;;;;;;5037265;28;4477;-64
2023/03/14 11:49:40;;;;;;;;;;;;;;;;;;5048623;28;5085;-65
2023/03/14 11:52:09;;;;;;;;;;;;;;;;;;5043862;28;4691;-64
2023/03/14 11:54:37;;;;;;;;;;;;;;;;;;5039642;28;1302;-64
2023/03/14 11:57:16;;;;;;;;;;;;;;;;;;5035901;28;5193;-65
2023/03/14 12:00:03;;;;;;;;;;;;;;;;;;5031647;28;4935;-65
2023/03/14 12:02:47;;;;;;;;;;;;;;;;;;5048300;28;4819;-65
2023/03/14 12:05:21;;;;;;;;;;;;;;;;;;5044153;28;4718;-65
2023/03/14 12:07:47;;;;;;;;;;;;;;;;;;5049911;28;4971;-65
2023/03/14 12:10:12;;;;;;;;;;;;;;;;;;5048038;28;4458;-65
2023/03/14 12:12:37;;;;;;;;;;;;;;;;;;5078843;28;1347;-64
2023/03/14 12:15:03;;;;;;;;;;;;;;;;;;5041046;28;4796;-65
2023/03/14 12:17:38;;;;;;;;;;;;;;;;;;5043429;28;4956;-65
2023/03/14 12:20:06;;;;;;;;;;;;;;;;;;5046718;28;5069;-65
2023/03/14 12:22:34;;;;;;;;;;;;;;;;;;5048257;28;4614;-65
2023/03/14 12:25:12;;;;;;;;;;;;;;;;;;5044606;28;5069;-65
2023/03/14 12:27:42;;;;;;;;;;;;;;;;;;5040873;28;1308;-65
2023/03/14 12:30:29;;;;;;;;;;;;;;;;;;5047388;28;4366;-64
2023/03/14 12:33:09;;;;;;;;;;;;;;;;;;5044433;28;4538;-65
2023/03/14 12:35:34;;;;;;;;;;;;;;;;;;5049121;28;4524;-65
2023/03/14 12:38:00;;;;;;;;;;;;;;;;;;5046442;28;4438;-64
2023/03/14 12:40:26;;;;;;;;;;;;;;;;;;5044504;28;4683;-64
2023/03/14 12:42:54;;;;;;;;;;;;;;;;;;5047472;28;4677;-64
2023/03/14 12:45:35;;;;;;;;;;;;;;;;;;5073880;28;1386;-64
2023/03/14 12:48:11;;;;;;;;;;;;;;;;;;5046567;28;4466;-64
2023/03/14 12:50:38;;;;;;;;;;;;;;;;;;5068137;28;4510;-64
2023/03/14 12:53:23;;;;;;;;;;;;;;;;;;5036336;28;5161;-65
2023/03/14 12:55:57;;;;;;;;;;;;;;;;;;5043934;28;4983;-65
2023/03/14 12:58:29;;;;;;;;;;;;;;;;;;5044279;28;4520;-65
2023/03/14 13:00:59;;;;;;;;;;;;;;;;;;5077883;28;4996;-64
2023/03/14 13:03:27;;;;;;;;;;;;;;;;;;5046176;28;1115;-64
2023/03/14 13:05:57;;;;;;;;;;;;;;;;;;5065625;28;4497;-64
2023/03/14 13:08:34;;;;;;;;;;;;;;;;;;5039002;28;4501;-65
2023/03/14 13:10:59;;;;;;;;;;;;;;;;;;5045933;28;4993;-64
2023/03/14 13:13:27;;;;;;;;;;;;;;;;;;5047026;28;4516;-63
2023/03/14 13:15:58;;;;;;;;;;;;;;;;;;5076248;28;4720;-64
2023/03/14 13:18:30;;;;;;;;;;;;;;;;;;5046917;28;4698;-64
2023/03/14 13:21:01;;;;;;;;;;;;;;;;;;5042764;28;5168;-64
2023/03/14 13:23:27;;;;;;;;;;;;;;;;;;5074378;28;4639;-64
2023/03/14 13:25:52;;;;;;;;;;;;;;;;;;5039512;28;4467;-65
2023/03/14 13:28:17;;;;;;;;;;;;;;;;;;5075535;28;5129;-64
2023/03/14 13:30:43;;;;;;;;;;;;;;;;;;5048872;28;1115;-64
2023/03/14 13:33:12;;;;;;;;;;;;;;;;;;5045874;28;5749;-64
2023/03/14 13:35:42;;;;;;;;;;;;;;;;;;5039172;28;4468;-64
2023/03/14 13:38:18;;;;;;;;;;;;;;;;;;5034262;28;5181;-65
2023/03/14 13:40:43;;;;;;;;;;;;;;;;;;5039215;28;5063;-63
2023/03/14 13:43:23;;;;;;;;;;;;;;;;;;5041550;28;5114;-64
2023/03/14 13:45:55;;;;;;;;;;;;;;;;;;5070229;28;4495;-64
2023/03/14 13:48:21;;;;;;;;;;;;;;;;;;5042779;28;2134;-64
2023/03/14 13:50:48;;;;;;;;;;;;;;;;;;5042479;28;4624;-64
2023/03/14 13:53:14;;;;;;;;;;;;;;;;;;5070456;28;5073;-66
2023/03/14 13:55:39;;;;;;;;;;;;;;;;;;5045949;28;5034;-66
2023/03/14 13:58:04;;;;;;;;;;;;;;;;;;5037731;28;4496;-66
2023/03/14 14:00:29;;;;;;;;;;;;;;;;;;5043798;28;3109;-66
2023/03/14 14:02:55;;;;;;;;;;;;;;;;;;5040104;28;4566;-64
2023/03/14 14:05:21;;;;;;;;;;;;;;;;;;5039797;28;5178;-66
2023/03/14 14:07:46;;;;;;;;;;;;;;;;;;5044085;28;4580;-66
2023/03/14 14:10:12;;;;;;;;;;;;;;;;;;5044954;28;4978;-66
2023/03/14 14:13:07;;;;;;;;;;;;;;;;;;5044601;28;2770;-66
2023/03/14 14:15:32;;;;;;;;;;;;;;;;;;5043724;28;4987;-66
2023/03/14 14:17:59;;;;;;;;;;;;;;;;;;5038919;28;4698;-66
2023/03/14 14:20:31;;;;;;;;;;;;;;;;;;5037512;28;4870;-66
2023/03/14 14:22:56;;;;;;;;;;;;;;;;;;5045800;28;4679;-66
2023/03/14 14:25:22;;;;;;;;;;;;;;;;;;5078976;28;4825;-66
2023/03/14 14:27:48;;;;;;;;;;;;;;;;;;5043548;28;4988;-66
2023/03/14 14:30:17;;;;;;;;;;;;;;;;;;5033206;28;1232;-67
2023/03/14 14:32:42;;;;;;;;;;;;;;;;;;5035470;28;4925;-66
2023/03/14 14:35:08;;;;;;;;;;;;;;;;;;5042112;28;4526;-66
2023/03/14 14:37:34;;;;;;;;;;;;;;;;;;5038631;28;4483;-66
2023/03/14 14:40:18;;;;;;;;;;;;;;;;;;5027008;28;5015;-65
2023/03/14 14:42:43;;;;;;;;;;;;;;;;;;5049783;28;5402;-63
2023/03/14 14:45:35;;;;;;;;;;;;;;;;;;5035780;28;3277;-66
2023/03/14 14:48:00;;;;;;;;;;;;;;;;;;5044210;28;4646;-65
2023/03/14 14:50:29;;;;;;;;;;;;;;;;;;5053802;28;4493;-66
2023/03/14 14:52:58;;;;;;;;;;;;;;;;;;5047032;28;4616;-65
2023/03/14 14:55:28;;;;;;;;;;;;;;;;;;5045584;28;4681;-66
2023/03/14 14:57:53;;;;;;;;;;;;;;;;;;5040732;28;4651;-64
2023/03/14 15:00:23;;;;;;;;;;;;;;;;;;5048210;28;3319;-65
2023/03/14 15:02:49;;;;;;;;;;;;;;;;;;5039446;28;4531;-64
2023/03/14 15:05:14;;;;;;;;;;;;;;;;;;5048085;28;4969;-64
2023/03/14 15:07:39;;;;;;;;;;;;;;;;;;5050529;28;4570;-65
2023/03/14 15:10:05;;;;;;;;;;;;;;;;;;5045396;28;4483;-65
2023/03/14 15:12:30;;;;;;;;;;;;;;;;;;5044130;28;3214;-65
2023/03/14 15:14:57;;;;;;;;;;;;;;;;;;5044786;28;5155;-65
2023/03/14 15:17:22;;;;;;;;;;;;;;;;;;5039988;28;5042;-66
2023/03/14 15:19:47;;;;;;;;;;;;;;;;;;5047903;28;4693;-68
2023/03/14 15:22:14;;;;;;;;;;;;;;;;;;5049390;28;4456;-67
2023/03/14 15:24:39;;;;;;;;;;;;;;;;;;5047805;28;3280;-65
2023/03/14 15:27:05;;;;;;;;;;;;;;;;;;5045774;28;4437;-65
2023/03/14 15:29:30;;;;;;;;;;;;;;;;;;5042078;28;4804;-65
2023/03/14 15:31:55;;;;;;;;;;;;;;;;;;5049954;28;4547;-66
2023/03/14 15:34:21;;;;;;;;;;;;;;;;;;5049825;28;4912;-65
2023/03/14 15:36:46;;;;;;;;;;;;;;;;;;5043517;28;5041;-65
2023/03/14 15:39:11;;;;;;;;;;;;;;;;;;5050555;28;1460;-65
2023/03/14 15:41:37;;;;;;;;;;;;;;;;;;5040092;28;4966;-66
2023/03/14 15:44:02;;;;;;;;;;;;;;;;;;5045881;28;4496;-66
2023/03/14 15:46:27;;;;;;;;;;;;;;;;;;5041113;28;4731;-64
2023/03/14 15:48:53;;;;;;;;;;;;;;;;;;5048556;28;5070;-66
2023/03/14 15:51:18;;;;;;;;;;;;;;;;;;5044812;28;1085;-66
2023/03/14 15:53:43;;;;;;;;;;;;;;;;;;5043597;28;5100;-66
2023/03/14 15:56:16;;;;;;;;;;;;;;;;;;5047494;28;4964;-65
2023/03/14 15:58:41;;;;;;;;;;;;;;;;;;5047024;28;4950;-65
2023/03/14 16:01:10;;;;;;;;;;;;;;;;;;5047100;28;4498;-64
2023/03/14 16:03:36;;;;;;;;;;;;;;;;;;5044342;28;3203;-65
2023/03/14 16:06:01;;;;;;;;;;;;;;;;;;5048285;28;4885;-65
2023/03/14 16:08:28;;;;;;;;;;;;;;;;;;5038978;28;5029;-65
2023/03/14 16:10:54;;;;;;;;;;;;;;;;;;5034503;28;4740;-65
2023/03/14 16:13:19;;;;;;;;;;;;;;;;;;5045956;28;4519;-65
2023/03/14 16:15:57;;;;;;;;;;;;;;;;;;5047159;28;4695;-65
2023/03/14 16:18:22;;;;;;;;;;;;;;;;;;5047826;28;4877;-66
2023/03/14 16:20:52;;;;;;;;;;;;;;;;;;5049676;28;4794;-65
2023/03/14 16:23:17;;;;;;;;;;;;;;;;;;5039478;28;4857;-65
2023/03/14 16:25:43;;;;;;;;;;;;;;;;;;5043813;28;4742;-65
2023/03/14 16:28:08;;;;;;;;;;;;;;;;;;5047110;28;5133;-66
2023/03/14 16:30:34;;;;;;;;;;;;;;;;;;5050064;28;1155;-65
2023/03/14 16:33:00;;;;;;;;;;;;;;;;;;5044726;28;4435;-65
2023/03/14 16:35:26;;;;;;;;;;;;;;;;;;5043114;28;4699;-65
2023/03/14 16:37:51;;;;;;;;;;;;;;;;;;5044337;28;5025;-65
2023/03/14 16:40:16;;;;;;;;;;;;;;;;;;5042632;28;4476;-65
2023/03/14 16:42:41;;;;;;;;;;;;;;;;;;5049602;28;1217;-65
2023/03/14 16:45:07;;;;;;;;;;;;;;;;;;5039635;28;4395;-65
2023/03/14 16:47:32;;;;;;;;;;;;;;;;;;5041214;28;4835;-65
2023/03/14 16:49:57;;;;;;;;;;;;;;;;;;5046809;28;5045;-65
2023/03/14 16:52:24;;;;;;;;;;;;;;;;;;5046699;28;5022;-65
2023/03/14 16:54:49;;;;;;;;;;;;;;;;;;5045803;28;4532;-65
2023/03/14 16:57:14;;;;;;;;;;;;;;;;;;5047870;28;1985;-65
2023/03/14 16:59:39;;;;;;;;;;;;;;;;;;5044400;28;4601;-65
2023/03/14 17:02:05;;;;;;;;;;;;;;;;;;5043798;28;4462;-65